sensor_id;sensor_type;location;lat;lon;timestamp;P1;durP1;ratioP1;P2;durP2;ratioP2
24729;SDS011;12832;52.392;13.066;2022-07-30T00:01:43;0.90;;;0.90;;
24729;SDS011;12832;52.392;13.066;2022-07-30T00:04:10;1.02;;;1.02;;
24729;SDS011;12832;52.392;13.066;2022-07-30T00:06:37;0.98;;;0.90;;
24729;SDS011;12832;52.392;13.066;2022-07-30T00:09:05;1.10;;;1.00;;
24729;SDS011;12832;52.392;13.066;2022-07-30T00:11:32;0.90;;;0.90;;
24729;SDS011;12832;52.392;13.066;2022-07-30T00:13:59;0.90;;;0.90;;
24729;SDS011;12832;52.392;13.066;2022-07-30T00:16:26;1.00;;;1.00;;
24729;SDS011;12832;52.392;13.066;2022-07-30T00:18:53;1.02;;;1.00;;
24729;SDS011;12832;52.392;13.066;2022-07-30T00:21:21;0.70;;;0.70;;
24729;SDS011;12832;52.392;13.066;2022-07-30T00:24:02;0.80;;;0.70;;
24729;SDS011;12832;52.392;13.066;2022-07-30T00:26:29;1.00;;;0.90;;
24729;SDS011;12832;52.392;13.066;2022-07-30T00:28:56;1.35;;;0.80;;
24729;SDS011;12832;52.392;13.066;2022-07-30T00:31:23;0.80;;;0.70;;
24729;SDS011;12832;52.392;13.066;2022-07-30T00:33:50;1.90;;;1.00;;
24729;SDS011;12832;52.392;13.066;2022-07-30T00:36:17;0.90;;;0.80;;
24729;SDS011;12832;52.392;13.066;2022-07-30T00:38:44;0.88;;;0.88;;
24729;SDS011;12832;52.392;13.066;2022-07-30T00:41:11;0.90;;;0.90;;
24729;SDS011;12832;52.392;13.066;2022-07-30T00:43:40;0.70;;;0.70;;
24729;SDS011;12832;52.392;13.066;2022-07-30T00:46:07;0.80;;;0.80;;
24729;SDS011;12832;52.392;13.066;2022-07-30T00:48:35;0.90;;;0.90;;
24729;SDS011;12832;52.392;13.066;2022-07-30T00:51:01;1.17;;;0.70;;
24729;SDS011;12832;52.392;13.066;2022-07-30T00:53:29;0.85;;;0.85;;
24729;SDS011;12832;52.392;13.066;2022-07-30T00:55:56;1.10;;;1.10;;
24729;SDS011;12832;52.392;13.066;2022-07-30T00:58:22;0.82;;;0.82;;
24729;SDS011;12832;52.392;13.066;2022-07-30T01:00:49;0.90;;;0.70;;
24729;SDS011;12832;52.392;13.066;2022-07-30T01:03:16;0.77;;;0.77;;
24729;SDS011;12832;52.392;13.066;2022-07-30T01:05:44;0.80;;;0.80;;
24729;SDS011;12832;52.392;13.066;2022-07-30T01:08:11;0.95;;;0.90;;
24729;SDS011;12832;52.392;13.066;2022-07-30T01:10:38;0.73;;;0.73;;
24729;SDS011;12832;52.392;13.066;2022-07-30T01:13:04;0.70;;;0.70;;
24729;SDS011;12832;52.392;13.066;2022-07-30T01:15:33;0.88;;;0.88;;
24729;SDS011;12832;52.392;13.066;2022-07-30T01:18:01;1.00;;;0.90;;
24729;SDS011;12832;52.392;13.066;2022-07-30T01:20:33;1.05;;;0.82;;
24729;SDS011;12832;52.392;13.066;2022-07-30T01:23:13;0.77;;;0.77;;
24729;SDS011;12832;52.392;13.066;2022-07-30T01:25:53;0.80;;;0.80;;
24729;SDS011;12832;52.392;13.066;2022-07-30T01:28:26;1.10;;;1.00;;
24729;SDS011;12832;52.392;13.066;2022-07-30T01:30:56;0.90;;;0.90;;
24729;SDS011;12832;52.392;13.066;2022-07-30T01:33:25;0.70;;;0.70;;
24729;SDS011;12832;52.392;13.066;2022-07-30T01:35:53;0.80;;;0.80;;
24729;SDS011;12832;52.392;13.066;2022-07-30T01:38:22;0.70;;;0.70;;
24729;SDS011;12832;52.392;13.066;2022-07-30T01:40:51;0.95;;;0.85;;
24729;SDS011;12832;52.392;13.066;2022-07-30T01:43:19;0.85;;;0.75;;
24729;SDS011;12832;52.392;13.066;2022-07-30T01:45:49;0.60;;;0.60;;
24729;SDS011;12832;52.392;13.066;2022-07-30T01:48:19;1.00;;;0.90;;
24729;SDS011;12832;52.392;13.066;2022-07-30T01:50:48;0.60;;;0.60;;
24729;SDS011;12832;52.392;13.066;2022-07-30T01:53:22;0.70;;;0.70;;
24729;SDS011;12832;52.392;13.066;2022-07-30T01:55:51;0.80;;;0.80;;
24729;SDS011;12832;52.392;13.066;2022-07-30T01:58:20;0.90;;;0.90;;
24729;SDS011;12832;52.392;13.066;2022-07-30T02:00:51;1.05;;;0.90;;
24729;SDS011;12832;52.392;13.066;2022-07-30T02:03:21;1.10;;;1.00;;
24729;SDS011;12832;52.392;13.066;2022-07-30T02:05:52;0.90;;;0.90;;
24729;SDS011;12832;52.392;13.066;2022-07-30T02:08:29;1.17;;;1.00;;
24729;SDS011;12832;52.392;13.066;2022-07-30T02:11:20;0.80;;;0.80;;
24729;SDS011;12832;52.392;13.066;2022-07-30T02:14:16;0.73;;;0.73;;
24729;SDS011;12832;52.392;13.066;2022-07-30T02:16:48;1.23;;;1.00;;
24729;SDS011;12832;52.392;13.066;2022-07-30T02:19:19;0.80;;;0.80;;
24729;SDS011;12832;52.392;13.066;2022-07-30T02:22:04;0.80;;;0.80;;
24729;SDS011;12832;52.392;13.066;2022-07-30T02:24:34;1.20;;;1.10;;
24729;SDS011;12832;52.392;13.066;2022-07-30T02:27:07;0.80;;;0.80;;
24729;SDS011;12832;52.392;13.066;2022-07-30T02:29:39;0.80;;;0.80;;
24729;SDS011;12832;52.392;13.066;2022-07-30T02:32:08;0.77;;;0.77;;
24729;SDS011;12832;52.392;13.066;2022-07-30T02:34:38;0.77;;;0.75;;
24729;SDS011;12832;52.392;13.066;2022-07-30T02:37:07;0.90;;;0.90;;
24729;SDS011;12832;52.392;13.066;2022-07-30T02:39:36;0.77;;;0.77;;
24729;SDS011;12832;52.392;13.066;2022-07-30T02:42:05;0.80;;;0.80;;
24729;SDS011;12832;52.392;13.066;2022-07-30T02:44:32;1.30;;;1.20;;
24729;SDS011;12832;52.392;13.066;2022-07-30T02:47:02;0.98;;;0.82;;
24729;SDS011;12832;52.392;13.066;2022-07-30T02:49:30;0.80;;;0.80;;
24729;SDS011;12832;52.392;13.066;2022-07-30T02:52:01;1.02;;;0.93;;
24729;SDS011;12832;52.392;13.066;2022-07-30T02:54:29;0.80;;;0.80;;
24729;SDS011;12832;52.392;13.066;2022-07-30T02:56:57;0.70;;;0.70;;
24729;SDS011;12832;52.392;13.066;2022-07-30T02:59:27;0.60;;;0.60;;
24729;SDS011;12832;52.392;13.066;2022-07-30T03:01:56;0.77;;;0.77;;
24729;SDS011;12832;52.392;13.066;2022-07-30T03:04:24;0.90;;;0.80;;
24729;SDS011;12832;52.392;13.066;2022-07-30T03:06:52;1.05;;;1.00;;
24729;SDS011;12832;52.392;13.066;2022-07-30T03:09:21;0.85;;;0.80;;
24729;SDS011;12832;52.392;13.066;2022-07-30T03:11:48;0.82;;;0.70;;
24729;SDS011;12832;52.392;13.066;2022-07-30T03:14:18;0.80;;;0.80;;
24729;SDS011;12832;52.392;13.066;2022-07-30T03:16:46;0.70;;;0.70;;
24729;SDS011;12832;52.392;13.066;2022-07-30T03:19:19;0.80;;;0.80;;
24729;SDS011;12832;52.392;13.066;2022-07-30T03:21:49;1.13;;;0.70;;
24729;SDS011;12832;52.392;13.066;2022-07-30T03:24:18;0.73;;;0.73;;
24729;SDS011;12832;52.392;13.066;2022-07-30T03:26:48;1.42;;;0.73;;
24729;SDS011;12832;52.392;13.066;2022-07-30T03:29:16;0.93;;;0.93;;
24729;SDS011;12832;52.392;13.066;2022-07-30T03:31:47;0.93;;;0.88;;
24729;SDS011;12832;52.392;13.066;2022-07-30T03:34:15;0.93;;;0.90;;
24729;SDS011;12832;52.392;13.066;2022-07-30T03:36:43;0.70;;;0.70;;
24729;SDS011;12832;52.392;13.066;2022-07-30T03:39:09;0.85;;;0.85;;
24729;SDS011;12832;52.392;13.066;2022-07-30T03:41:38;0.93;;;0.85;;
24729;SDS011;12832;52.392;13.066;2022-07-30T03:44:06;1.00;;;0.90;;
24729;SDS011;12832;52.392;13.066;2022-07-30T03:46:36;0.70;;;0.70;;
24729;SDS011;12832;52.392;13.066;2022-07-30T03:49:04;0.75;;;0.75;;
24729;SDS011;12832;52.392;13.066;2022-07-30T03:51:31;0.80;;;0.80;;
24729;SDS011;12832;52.392;13.066;2022-07-30T03:53:59;0.70;;;0.70;;
24729;SDS011;12832;52.392;13.066;2022-07-30T03:56:27;0.80;;;0.80;;
24729;SDS011;12832;52.392;13.066;2022-07-30T03:58:54;0.70;;;0.70;;
24729;SDS011;12832;52.392;13.066;2022-07-30T04:01:24;0.80;;;0.80;;
24729;SDS011;12832;52.392;13.066;2022-07-30T04:03:52;0.73;;;0.73;;
24729;SDS011;12832;52.392;13.066;2022-07-30T04:06:19;0.80;;;0.80;;
24729;SDS011;12832;52.392;13.066;2022-07-30T04:08:46;0.80;;;0.80;;
24729;SDS011;12832;52.392;13.066;2022-07-30T04:11:12;0.65;;;0.65;;
24729;SDS011;12832;52.392;13.066;2022-07-30T04:13:39;0.98;;;0.98;;
24729;SDS011;12832;52.392;13.066;2022-07-30T04:18:59;0.80;;;0.80;;
24729;SDS011;12832;52.392;13.066;2022-07-30T04:21:28;1.10;;;0.70;;
24729;SDS011;12832;52.392;13.066;2022-07-30T04:23:58;0.88;;;0.80;;
24729;SDS011;12832;52.392;13.066;2022-07-30T04:26:30;0.90;;;0.90;;
24729;SDS011;12832;52.392;13.066;2022-07-30T04:29:01;0.90;;;0.90;;
24729;SDS011;12832;52.392;13.066;2022-07-30T04:31:31;0.70;;;0.70;;
24729;SDS011;12832;52.392;13.066;2022-07-30T04:34:06;0.70;;;0.70;;
24729;SDS011;12832;52.392;13.066;2022-07-30T04:36:33;1.00;;;0.90;;
24729;SDS011;12832;52.392;13.066;2022-07-30T04:39:02;1.40;;;0.90;;
24729;SDS011;12832;52.392;13.066;2022-07-30T04:41:29;0.88;;;0.88;;
24729;SDS011;12832;52.392;13.066;2022-07-30T04:44:13;0.80;;;0.80;;
24729;SDS011;12832;52.392;13.066;2022-07-30T04:46:40;0.75;;;0.75;;
24729;SDS011;12832;52.392;13.066;2022-07-30T04:49:08;0.70;;;0.70;;
24729;SDS011;12832;52.392;13.066;2022-07-30T04:51:36;0.80;;;0.80;;
24729;SDS011;12832;52.392;13.066;2022-07-30T04:54:04;0.75;;;0.75;;
24729;SDS011;12832;52.392;13.066;2022-07-30T04:56:40;0.82;;;0.77;;
24729;SDS011;12832;52.392;13.066;2022-07-30T04:59:19;0.85;;;0.75;;
24729;SDS011;12832;52.392;13.066;2022-07-30T05:01:48;0.70;;;0.70;;
24729;SDS011;12832;52.392;13.066;2022-07-30T05:04:17;1.00;;;0.90;;
24729;SDS011;12832;52.392;13.066;2022-07-30T05:06:46;0.85;;;0.80;;
24729;SDS011;12832;52.392;13.066;2022-07-30T05:09:15;0.80;;;0.80;;
24729;SDS011;12832;52.392;13.066;2022-07-30T05:11:48;0.80;;;0.80;;
24729;SDS011;12832;52.392;13.066;2022-07-30T05:14:16;0.73;;;0.73;;
24729;SDS011;12832;52.392;13.066;2022-07-30T05:16:43;0.77;;;0.77;;
24729;SDS011;12832;52.392;13.066;2022-07-30T05:19:10;1.23;;;1.02;;
24729;SDS011;12832;52.392;13.066;2022-07-30T05:21:37;0.70;;;0.70;;
24729;SDS011;12832;52.392;13.066;2022-07-30T05:24:04;0.70;;;0.68;;
24729;SDS011;12832;52.392;13.066;2022-07-30T05:26:31;1.05;;;1.00;;
24729;SDS011;12832;52.392;13.066;2022-07-30T05:28:58;1.10;;;1.00;;
24729;SDS011;12832;52.392;13.066;2022-07-30T05:31:28;0.80;;;0.70;;
24729;SDS011;12832;52.392;13.066;2022-07-30T05:33:57;0.80;;;0.80;;
24729;SDS011;12832;52.392;13.066;2022-07-30T05:36:28;0.90;;;0.90;;
24729;SDS011;12832;52.392;13.066;2022-07-30T05:38:55;0.80;;;0.80;;
24729;SDS011;12832;52.392;13.066;2022-07-30T05:41:22;0.98;;;0.98;;
24729;SDS011;12832;52.392;13.066;2022-07-30T05:43:58;1.00;;;0.90;;
24729;SDS011;12832;52.392;13.066;2022-07-30T05:46:25;0.85;;;0.82;;
24729;SDS011;12832;52.392;13.066;2022-07-30T05:48:52;1.13;;;0.90;;
24729;SDS011;12832;52.392;13.066;2022-07-30T05:51:19;1.00;;;0.75;;
24729;SDS011;12832;52.392;13.066;2022-07-30T05:53:47;0.93;;;0.85;;
24729;SDS011;12832;52.392;13.066;2022-07-30T05:56:15;0.75;;;0.75;;
24729;SDS011;12832;52.392;13.066;2022-07-30T05:58:42;0.80;;;0.80;;
24729;SDS011;12832;52.392;13.066;2022-07-30T06:01:08;0.70;;;0.70;;
24729;SDS011;12832;52.392;13.066;2022-07-30T06:03:37;1.10;;;1.00;;
24729;SDS011;12832;52.392;13.066;2022-07-30T06:06:04;0.77;;;0.77;;
24729;SDS011;12832;52.392;13.066;2022-07-30T06:08:32;0.80;;;0.80;;
24729;SDS011;12832;52.392;13.066;2022-07-30T06:10:59;0.68;;;0.68;;
24729;SDS011;12832;52.392;13.066;2022-07-30T06:13:27;0.80;;;0.80;;
24729;SDS011;12832;52.392;13.066;2022-07-30T06:15:54;0.80;;;0.80;;
24729;SDS011;12832;52.392;13.066;2022-07-30T06:18:21;1.30;;;0.90;;
24729;SDS011;12832;52.392;13.066;2022-07-30T06:20:49;0.90;;;0.88;;
24729;SDS011;12832;52.392;13.066;2022-07-30T06:23:17;0.88;;;0.88;;
24729;SDS011;12832;52.392;13.066;2022-07-30T06:25:45;0.85;;;0.85;;
24729;SDS011;12832;52.392;13.066;2022-07-30T06:28:13;0.77;;;0.77;;
24729;SDS011;12832;52.392;13.066;2022-07-30T06:31:00;0.90;;;0.90;;
24729;SDS011;12832;52.392;13.066;2022-07-30T06:33:27;0.80;;;0.80;;
24729;SDS011;12832;52.392;13.066;2022-07-30T06:35:54;0.70;;;0.70;;
24729;SDS011;12832;52.392;13.066;2022-07-30T06:38:21;0.93;;;0.93;;
24729;SDS011;12832;52.392;13.066;2022-07-30T06:40:48;0.90;;;0.90;;
24729;SDS011;12832;52.392;13.066;2022-07-30T06:43:15;0.80;;;0.80;;
24729;SDS011;12832;52.392;13.066;2022-07-30T06:45:44;1.17;;;0.80;;
24729;SDS011;12832;52.392;13.066;2022-07-30T06:48:11;0.73;;;0.70;;
24729;SDS011;12832;52.392;13.066;2022-07-30T06:50:38;0.70;;;0.70;;
24729;SDS011;12832;52.392;13.066;2022-07-30T06:53:06;0.80;;;0.80;;
24729;SDS011;12832;52.392;13.066;2022-07-30T06:55:33;0.80;;;0.80;;
24729;SDS011;12832;52.392;13.066;2022-07-30T06:58:00;0.80;;;0.70;;
24729;SDS011;12832;52.392;13.066;2022-07-30T07:00:27;0.85;;;0.85;;
24729;SDS011;12832;52.392;13.066;2022-07-30T07:02:54;1.10;;;0.93;;
24729;SDS011;12832;52.392;13.066;2022-07-30T07:05:21;0.70;;;0.70;;
24729;SDS011;12832;52.392;13.066;2022-07-30T07:07:48;0.82;;;0.80;;
24729;SDS011;12832;52.392;13.066;2022-07-30T07:10:25;0.90;;;0.90;;
24729;SDS011;12832;52.392;13.066;2022-07-30T07:12:53;1.02;;;0.80;;
24729;SDS011;12832;52.392;13.066;2022-07-30T07:15:20;1.10;;;0.98;;
24729;SDS011;12832;52.392;13.066;2022-07-30T07:17:57;0.73;;;0.73;;
24729;SDS011;12832;52.392;13.066;2022-07-30T07:20:27;0.60;;;0.60;;
24729;SDS011;12832;52.392;13.066;2022-07-30T07:22:54;1.30;;;1.20;;
24729;SDS011;12832;52.392;13.066;2022-07-30T07:25:22;0.80;;;0.80;;
24729;SDS011;12832;52.392;13.066;2022-07-30T07:27:49;0.82;;;0.80;;
24729;SDS011;12832;52.392;13.066;2022-07-30T07:30:36;0.77;;;0.77;;
24729;SDS011;12832;52.392;13.066;2022-07-30T07:33:03;0.70;;;0.70;;
24729;SDS011;12832;52.392;13.066;2022-07-30T07:35:30;0.98;;;0.88;;
24729;SDS011;12832;52.392;13.066;2022-07-30T07:38:14;0.70;;;0.70;;
24729;SDS011;12832;52.392;13.066;2022-07-30T07:40:41;0.80;;;0.80;;
24729;SDS011;12832;52.392;13.066;2022-07-30T07:43:08;1.40;;;0.80;;
24729;SDS011;12832;52.392;13.066;2022-07-30T07:45:35;0.82;;;0.82;;
24729;SDS011;12832;52.392;13.066;2022-07-30T07:48:02;0.80;;;0.80;;
24729;SDS011;12832;52.392;13.066;2022-07-30T07:50:29;0.80;;;0.80;;
24729;SDS011;12832;52.392;13.066;2022-07-30T07:52:55;0.88;;;0.80;;
24729;SDS011;12832;52.392;13.066;2022-07-30T07:55:23;1.00;;;0.80;;
24729;SDS011;12832;52.392;13.066;2022-07-30T07:57:50;0.70;;;0.70;;
24729;SDS011;12832;52.392;13.066;2022-07-30T08:00:19;0.93;;;0.85;;
24729;SDS011;12832;52.392;13.066;2022-07-30T08:02:46;0.70;;;0.70;;
24729;SDS011;12832;52.392;13.066;2022-07-30T08:05:14;1.05;;;0.95;;
24729;SDS011;12832;52.392;13.066;2022-07-30T08:07:42;0.77;;;0.77;;
24729;SDS011;12832;52.392;13.066;2022-07-30T08:10:10;0.70;;;0.70;;
24729;SDS011;12832;52.392;13.066;2022-07-30T08:12:39;0.50;;;0.50;;
24729;SDS011;12832;52.392;13.066;2022-07-30T08:15:06;1.00;;;0.75;;
24729;SDS011;12832;52.392;13.066;2022-07-30T08:17:41;0.80;;;0.80;;
24729;SDS011;12832;52.392;13.066;2022-07-30T08:20:09;0.85;;;0.80;;
24729;SDS011;12832;52.392;13.066;2022-07-30T08:22:37;0.70;;;0.70;;
24729;SDS011;12832;52.392;13.066;2022-07-30T08:25:05;0.93;;;0.90;;
24729;SDS011;12832;52.392;13.066;2022-07-30T08:27:32;0.80;;;0.75;;
24729;SDS011;12832;52.392;13.066;2022-07-30T08:30:03;1.00;;;0.70;;
24729;SDS011;12832;52.392;13.066;2022-07-30T08:32:31;0.90;;;0.90;;
24729;SDS011;12832;52.392;13.066;2022-07-30T08:34:58;0.77;;;0.75;;
24729;SDS011;12832;52.392;13.066;2022-07-30T08:37:25;0.65;;;0.60;;
24729;SDS011;12832;52.392;13.066;2022-07-30T08:39:51;1.35;;;0.82;;
24729;SDS011;12832;52.392;13.066;2022-07-30T08:42:18;0.70;;;0.65;;
24729;SDS011;12832;52.392;13.066;2022-07-30T08:44:45;0.80;;;0.70;;
24729;SDS011;12832;52.392;13.066;2022-07-30T08:47:15;0.77;;;0.68;;
24729;SDS011;12832;52.392;13.066;2022-07-30T08:49:46;0.63;;;0.63;;
24729;SDS011;12832;52.392;13.066;2022-07-30T08:52:14;0.82;;;0.80;;
24729;SDS011;12832;52.392;13.066;2022-07-30T08:54:41;0.80;;;0.80;;
24729;SDS011;12832;52.392;13.066;2022-07-30T08:57:10;0.60;;;0.60;;
24729;SDS011;12832;52.392;13.066;2022-07-30T08:59:37;0.75;;;0.75;;
24729;SDS011;12832;52.392;13.066;2022-07-30T09:02:24;0.73;;;0.73;;
24729;SDS011;12832;52.392;13.066;2022-07-30T09:04:54;1.05;;;0.70;;
24729;SDS011;12832;52.392;13.066;2022-07-30T09:07:21;0.70;;;0.70;;
24729;SDS011;12832;52.392;13.066;2022-07-30T09:09:48;0.73;;;0.73;;
24729;SDS011;12832;52.392;13.066;2022-07-30T09:15:00;0.68;;;0.68;;
24729;SDS011;12832;52.392;13.066;2022-07-30T09:20:25;0.60;;;0.60;;
24729;SDS011;12832;52.392;13.066;2022-07-30T09:22:55;0.77;;;0.77;;
24729;SDS011;12832;52.392;13.066;2022-07-30T09:25:43;0.82;;;0.82;;
24729;SDS011;12832;52.392;13.066;2022-07-30T09:28:13;0.82;;;0.82;;
24729;SDS011;12832;52.392;13.066;2022-07-30T09:30:46;0.80;;;0.70;;
24729;SDS011;12832;52.392;13.066;2022-07-30T09:33:31;1.05;;;0.95;;
24729;SDS011;12832;52.392;13.066;2022-07-30T09:36:07;1.52;;;0.70;;
24729;SDS011;12832;52.392;13.066;2022-07-30T09:38:49;3.38;;;0.80;;
24729;SDS011;12832;52.392;13.066;2022-07-30T09:41:18;0.60;;;0.60;;
24729;SDS011;12832;52.392;13.066;2022-07-30T09:44:04;0.65;;;0.65;;
24729;SDS011;12832;52.392;13.066;2022-07-30T09:46:42;0.70;;;0.70;;
24729;SDS011;12832;52.392;13.066;2022-07-30T09:49:17;0.80;;;0.63;;
24729;SDS011;12832;52.392;13.066;2022-07-30T09:51:48;0.60;;;0.60;;
24729;SDS011;12832;52.392;13.066;2022-07-30T09:54:22;0.70;;;0.70;;
24729;SDS011;12832;52.392;13.066;2022-07-30T09:57:03;0.50;;;0.50;;
24729;SDS011;12832;52.392;13.066;2022-07-30T09:59:53;1.08;;;0.75;;
24729;SDS011;12832;52.392;13.066;2022-07-30T10:02:30;0.60;;;0.60;;
24729;SDS011;12832;52.392;13.066;2022-07-30T10:07:57;0.68;;;0.68;;
24729;SDS011;12832;52.392;13.066;2022-07-30T10:10:29;0.60;;;0.60;;
24729;SDS011;12832;52.392;13.066;2022-07-30T10:13:00;0.52;;;0.52;;
24729;SDS011;12832;52.392;13.066;2022-07-30T10:15:31;0.57;;;0.57;;
24729;SDS011;12832;52.392;13.066;2022-07-30T10:18:00;0.80;;;0.77;;
24729;SDS011;12832;52.392;13.066;2022-07-30T10:20:32;0.80;;;0.80;;
24729;SDS011;12832;52.392;13.066;2022-07-30T10:23:00;0.63;;;0.63;;
24729;SDS011;12832;52.392;13.066;2022-07-30T10:25:34;0.57;;;0.43;;
24729;SDS011;12832;52.392;13.066;2022-07-30T10:28:19;0.52;;;0.52;;
24729;SDS011;12832;52.392;13.066;2022-07-30T10:30:51;0.63;;;0.63;;
24729;SDS011;12832;52.392;13.066;2022-07-30T10:33:21;0.60;;;0.60;;
24729;SDS011;12832;52.392;13.066;2022-07-30T10:36:05;0.50;;;0.50;;
24729;SDS011;12832;52.392;13.066;2022-07-30T10:38:36;0.47;;;0.47;;
24729;SDS011;12832;52.392;13.066;2022-07-30T10:41:11;0.50;;;0.50;;
24729;SDS011;12832;52.392;13.066;2022-07-30T10:47:00;0.57;;;0.50;;
24729;SDS011;12832;52.392;13.066;2022-07-30T10:49:34;0.75;;;0.70;;
24729;SDS011;12832;52.392;13.066;2022-07-30T10:52:08;0.50;;;0.50;;
24729;SDS011;12832;52.392;13.066;2022-07-30T10:54:38;0.60;;;0.60;;
24729;SDS011;12832;52.392;13.066;2022-07-30T10:57:11;0.50;;;0.50;;
24729;SDS011;12832;52.392;13.066;2022-07-30T11:02:29;0.60;;;0.60;;
24729;SDS011;12832;52.392;13.066;2022-07-30T11:07:44;0.60;;;0.60;;
24729;SDS011;12832;52.392;13.066;2022-07-30T11:12:59;0.70;;;0.60;;
24729;SDS011;12832;52.392;13.066;2022-07-30T11:15:50;0.70;;;0.70;;
24729;SDS011;12832;52.392;13.066;2022-07-30T11:18:21;0.50;;;0.50;;
24729;SDS011;12832;52.392;13.066;2022-07-30T11:23:46;0.70;;;0.60;;
24729;SDS011;12832;52.392;13.066;2022-07-30T11:29:07;0.65;;;0.57;;
24729;SDS011;12832;52.392;13.066;2022-07-30T11:32:44;0.52;;;0.47;;
24729;SDS011;12832;52.392;13.066;2022-07-30T11:38:02;0.65;;;0.65;;
24729;SDS011;12832;52.392;13.066;2022-07-30T11:40:35;0.63;;;0.63;;
24729;SDS011;12832;52.392;13.066;2022-07-30T11:46:11;0.60;;;0.60;;
24729;SDS011;12832;52.392;13.066;2022-07-30T11:48:59;0.60;;;0.60;;
24729;SDS011;12832;52.392;13.066;2022-07-30T11:51:39;0.50;;;0.50;;
24729;SDS011;12832;52.392;13.066;2022-07-30T11:54:07;0.50;;;0.50;;
24729;SDS011;12832;52.392;13.066;2022-07-30T11:56:47;0.57;;;0.57;;
24729;SDS011;12832;52.392;13.066;2022-07-30T11:59:15;0.40;;;0.40;;
24729;SDS011;12832;52.392;13.066;2022-07-30T12:01:42;0.60;;;0.60;;
24729;SDS011;12832;52.392;13.066;2022-07-30T12:04:09;0.60;;;0.60;;
24729;SDS011;12832;52.392;13.066;2022-07-30T12:06:42;0.45;;;0.45;;
24729;SDS011;12832;52.392;13.066;2022-07-30T12:09:10;0.50;;;0.50;;
24729;SDS011;12832;52.392;13.066;2022-07-30T12:11:37;0.60;;;0.60;;
24729;SDS011;12832;52.392;13.066;2022-07-30T12:14:05;0.55;;;0.55;;
24729;SDS011;12832;52.392;13.066;2022-07-30T12:16:32;0.70;;;0.70;;
24729;SDS011;12832;52.392;13.066;2022-07-30T12:19:00;0.90;;;0.70;;
24729;SDS011;12832;52.392;13.066;2022-07-30T12:21:28;0.50;;;0.50;;
24729;SDS011;12832;52.392;13.066;2022-07-30T12:23:57;1.17;;;0.40;;
24729;SDS011;12832;52.392;13.066;2022-07-30T12:26:29;0.60;;;0.60;;
24729;SDS011;12832;52.392;13.066;2022-07-30T12:28:58;0.40;;;0.40;;
24729;SDS011;12832;52.392;13.066;2022-07-30T12:31:27;0.70;;;0.60;;
24729;SDS011;12832;52.392;13.066;2022-07-30T12:33:54;0.50;;;0.50;;
24729;SDS011;12832;52.392;13.066;2022-07-30T12:36:34;0.70;;;0.50;;
24729;SDS011;12832;52.392;13.066;2022-07-30T12:39:02;0.50;;;0.50;;
24729;SDS011;12832;52.392;13.066;2022-07-30T12:41:42;0.70;;;0.70;;
24729;SDS011;12832;52.392;13.066;2022-07-30T12:44:36;0.82;;;0.70;;
24729;SDS011;12832;52.392;13.066;2022-07-30T12:47:05;0.50;;;0.50;;
24729;SDS011;12832;52.392;13.066;2022-07-30T12:49:44;0.50;;;0.50;;
24729;SDS011;12832;52.392;13.066;2022-07-30T12:52:22;0.50;;;0.50;;
24729;SDS011;12832;52.392;13.066;2022-07-30T12:55:15;0.60;;;0.60;;
24729;SDS011;12832;52.392;13.066;2022-07-30T12:57:51;0.60;;;0.60;;
24729;SDS011;12832;52.392;13.066;2022-07-30T13:00:20;0.50;;;0.50;;
24729;SDS011;12832;52.392;13.066;2022-07-30T13:02:48;0.68;;;0.68;;
24729;SDS011;12832;52.392;13.066;2022-07-30T13:05:15;0.60;;;0.57;;
24729;SDS011;12832;52.392;13.066;2022-07-30T13:07:58;0.73;;;0.73;;
24729;SDS011;12832;52.392;13.066;2022-07-30T13:10:25;0.50;;;0.50;;
24729;SDS011;12832;52.392;13.066;2022-07-30T13:12:56;0.80;;;0.60;;
24729;SDS011;12832;52.392;13.066;2022-07-30T13:15:23;0.50;;;0.50;;
24729;SDS011;12832;52.392;13.066;2022-07-30T13:17:51;0.55;;;0.50;;
24729;SDS011;12832;52.392;13.066;2022-07-30T13:20:18;0.57;;;0.57;;
24729;SDS011;12832;52.392;13.066;2022-07-30T13:22:46;0.60;;;0.52;;
24729;SDS011;12832;52.392;13.066;2022-07-30T13:25:13;0.68;;;0.68;;
24729;SDS011;12832;52.392;13.066;2022-07-30T13:27:39;0.47;;;0.47;;
24729;SDS011;12832;52.392;13.066;2022-07-30T13:30:06;0.40;;;0.40;;
24729;SDS011;12832;52.392;13.066;2022-07-30T13:32:34;0.40;;;0.40;;
24729;SDS011;12832;52.392;13.066;2022-07-30T13:35:01;0.60;;;0.60;;
24729;SDS011;12832;52.392;13.066;2022-07-30T13:37:30;0.80;;;0.63;;
24729;SDS011;12832;52.392;13.066;2022-07-30T13:40:04;0.50;;;0.40;;
24729;SDS011;12832;52.392;13.066;2022-07-30T13:42:32;0.40;;;0.40;;
24729;SDS011;12832;52.392;13.066;2022-07-30T13:44:58;0.50;;;0.40;;
24729;SDS011;12832;52.392;13.066;2022-07-30T13:47:25;0.60;;;0.60;;
24729;SDS011;12832;52.392;13.066;2022-07-30T13:49:52;0.52;;;0.52;;
24729;SDS011;12832;52.392;13.066;2022-07-30T13:52:19;0.50;;;0.50;;
24729;SDS011;12832;52.392;13.066;2022-07-30T13:54:46;0.70;;;0.60;;
24729;SDS011;12832;52.392;13.066;2022-07-30T13:57:13;0.73;;;0.50;;
24729;SDS011;12832;52.392;13.066;2022-07-30T13:59:40;0.60;;;0.50;;
24729;SDS011;12832;52.392;13.066;2022-07-30T14:02:07;0.40;;;0.40;;
24729;SDS011;12832;52.392;13.066;2022-07-30T14:04:34;0.45;;;0.43;;
24729;SDS011;12832;52.392;13.066;2022-07-30T14:07:01;0.63;;;0.60;;
24729;SDS011;12832;52.392;13.066;2022-07-30T14:09:29;0.50;;;0.50;;
24729;SDS011;12832;52.392;13.066;2022-07-30T14:11:56;0.65;;;0.65;;
24729;SDS011;12832;52.392;13.066;2022-07-30T14:14:23;0.50;;;0.50;;
24729;SDS011;12832;52.392;13.066;2022-07-30T14:16:50;0.55;;;0.43;;
24729;SDS011;12832;52.392;13.066;2022-07-30T14:19:19;0.60;;;0.60;;
24729;SDS011;12832;52.392;13.066;2022-07-30T14:21:49;0.40;;;0.40;;
24729;SDS011;12832;52.392;13.066;2022-07-30T14:24:18;0.63;;;0.50;;
24729;SDS011;12832;52.392;13.066;2022-07-30T14:26:45;0.52;;;0.52;;
24729;SDS011;12832;52.392;13.066;2022-07-30T14:29:13;0.52;;;0.52;;
24729;SDS011;12832;52.392;13.066;2022-07-30T14:31:39;0.43;;;0.43;;
24729;SDS011;12832;52.392;13.066;2022-07-30T14:34:06;0.43;;;0.43;;
24729;SDS011;12832;52.392;13.066;2022-07-30T14:36:33;0.55;;;0.40;;
24729;SDS011;12832;52.392;13.066;2022-07-30T14:39:02;0.63;;;0.45;;
24729;SDS011;12832;52.392;13.066;2022-07-30T14:41:30;0.63;;;0.50;;
24729;SDS011;12832;52.392;13.066;2022-07-30T14:43:57;0.50;;;0.50;;
24729;SDS011;12832;52.392;13.066;2022-07-30T14:46:24;0.50;;;0.50;;
24729;SDS011;12832;52.392;13.066;2022-07-30T14:48:51;0.50;;;0.50;;
24729;SDS011;12832;52.392;13.066;2022-07-30T14:51:18;0.60;;;0.60;;
24729;SDS011;12832;52.392;13.066;2022-07-30T14:53:51;0.60;;;0.60;;
24729;SDS011;12832;52.392;13.066;2022-07-30T14:56:20;0.50;;;0.50;;
24729;SDS011;12832;52.392;13.066;2022-07-30T14:58:47;0.40;;;0.40;;
24729;SDS011;12832;52.392;13.066;2022-07-30T15:01:14;0.50;;;0.50;;
24729;SDS011;12832;52.392;13.066;2022-07-30T15:03:43;0.50;;;0.50;;
24729;SDS011;12832;52.392;13.066;2022-07-30T15:06:10;0.50;;;0.50;;
24729;SDS011;12832;52.392;13.066;2022-07-30T15:08:38;0.55;;;0.55;;
24729;SDS011;12832;52.392;13.066;2022-07-30T15:11:06;0.50;;;0.50;;
24729;SDS011;12832;52.392;13.066;2022-07-30T15:13:35;0.80;;;0.60;;
24729;SDS011;12832;52.392;13.066;2022-07-30T15:16:06;0.50;;;0.50;;
24729;SDS011;12832;52.392;13.066;2022-07-30T15:18:33;0.45;;;0.45;;
24729;SDS011;12832;52.392;13.066;2022-07-30T15:20:59;0.43;;;0.43;;
24729;SDS011;12832;52.392;13.066;2022-07-30T15:23:27;0.60;;;0.60;;
24729;SDS011;12832;52.392;13.066;2022-07-30T15:25:53;0.50;;;0.50;;